Data Viewer
| City | State | Eastern Time | Source | Temp | DewPt | RH | BP | 5 Min Precip | Wind Speed | Wind Dir | 5 Min Wind Max | 5 Min Wind Max Dir |
|---|---|---|---|---|---|---|---|---|---|---|---|---|
| Mount Pocono | PA | 2026-05-08 20:15 | ASOS | 48 | 41 | 76 | 29.89 | 7 | W | |||
| Mount Pocono | PA | 2026-05-09 06:05 | ASOS | 45 | 43 | 93 | 29.89 | 0 | N | |||
| Mount Pocono | PA | 2026-05-09 05:25 | ASOS | 45 | 43 | 93 | 29.89 | 0 | N | |||
| Mount Pocono | PA | 2026-05-09 05:30 | ASOS | 43 | 43 | 100 | 29.90 | 0 | N | |||
| Mount Pocono | PA | 2026-05-09 05:35 | ASOS | 43 | 43 | 100 | 29.90 | 0 | N | |||
| Mount Pocono | PA | 2026-05-09 05:40 | ASOS | 43 | 43 | 100 | 29.90 | 0 | N | |||
| Mount Pocono | PA | 2026-05-09 05:45 | ASOS | 43 | 43 | 100 | 29.90 | 0 | N | |||
| Mount Pocono | PA | 2026-05-09 05:50 | ASOS | 43 | 43 | 100 | 29.90 | 5 | ESE | |||
| Mount Pocono | PA | 2026-05-09 05:53 | ASOS | 43 | 43 | 100 | 29.90 | 5 | ESE | |||
| Mount Pocono | PA | 2026-05-09 06:00 | ASOS | 45 | 43 | 93 | 29.89 | 3 | ESE | |||
| Mount Pocono | PA | 2026-05-09 06:10 | ASOS | 46 | 43 | 87 | 29.89 | 3 | E | |||
| Mount Pocono | PA | 2026-05-09 05:15 | ASOS | 45 | 43 | 93 | 29.89 | 0 | N | |||
| Mount Pocono | PA | 2026-05-09 06:15 | ASOS | 45 | 43 | 93 | 29.89 | 3 | E | |||
| Mount Pocono | PA | 2026-05-09 06:20 | ASOS | 45 | 43 | 93 | 29.88 | 6 | E | |||
| Mount Pocono | PA | 2026-05-09 06:25 | ASOS | 45 | 43 | 93 | 29.88 | 5 | E | |||
| Mount Pocono | PA | 2026-05-09 06:30 | ASOS | 46 | 43 | 87 | 29.88 | 0 | N | |||
| Mount Pocono | PA | 2026-05-09 06:35 | ASOS | 46 | 43 | 87 | 29.88 | 3 | E | |||
| Mount Pocono | PA | 2026-05-09 06:40 | ASOS | 46 | 43 | 87 | 29.88 | 5 | E | |||
| Mount Pocono | PA | 2026-05-09 06:45 | ASOS | 46 | 43 | 87 | 29.88 | 3 | E | |||
| Mount Pocono | PA | 2026-05-09 06:50 | ASOS | 46 | 43 | 87 | 29.89 | 0 | N | |||
| Mount Pocono | PA | 2026-05-09 05:20 | ASOS | 45 | 43 | 93 | 29.89 | 0 | N | |||
| Mount Pocono | PA | 2026-05-09 05:10 | ASOS | 45 | 43 | 93 | 29.89 | 3 | N | |||
| Mount Pocono | PA | 2026-05-09 07:05 | ASOS | 46 | 43 | 87 | 29.88 | 0 | N | |||
| Mount Pocono | PA | 2026-05-09 04:20 | ASOS | 45 | 43 | 93 | 29.90 | 0 | N | |||
| Mount Pocono | PA | 2026-05-09 03:35 | ASOS | 46 | 43 | 87 | 29.91 | 0 | N | |||
| Mount Pocono | PA | 2026-05-09 03:40 | ASOS | 46 | 43 | 87 | 29.91 | 0 | N | |||
| Mount Pocono | PA | 2026-05-09 03:45 | ASOS | 46 | 43 | 87 | 29.91 | 3 | W | |||
| Mount Pocono | PA | 2026-05-09 03:50 | ASOS | 46 | 43 | 87 | 29.91 | 0 | N | |||
| Mount Pocono | PA | 2026-05-09 03:53 | ASOS | 46 | 43 | 89 | 29.91 | 0 | N | |||
| Mount Pocono | PA | 2026-05-09 04:00 | ASOS | 46 | 43 | 87 | 29.91 | 0 | N | |||
| Mount Pocono | PA | 2026-05-09 04:05 | ASOS | 46 | 43 | 87 | 29.91 | 0 | N | |||
| Mount Pocono | PA | 2026-05-09 04:15 | ASOS | 45 | 43 | 93 | 29.90 | 0 | N | |||
| Mount Pocono | PA | 2026-05-09 04:25 | ASOS | 45 | 43 | 93 | 29.90 | 0 | N | |||
| Mount Pocono | PA | 2026-05-09 05:05 | ASOS | 45 | 43 | 93 | 29.89 | 3 | N | |||
| Mount Pocono | PA | 2026-05-09 04:30 | ASOS | 45 | 43 | 93 | 29.90 | 0 | N | |||
| Mount Pocono | PA | 2026-05-09 04:35 | ASOS | 46 | 43 | 87 | 29.90 | 0 | N | |||
| Mount Pocono | PA | 2026-05-09 04:40 | ASOS | 46 | 43 | 87 | 29.90 | 0 | N | |||
| Mount Pocono | PA | 2026-05-09 04:45 | ASOS | 46 | 43 | 87 | 29.90 | 0 | N | |||
| Mount Pocono | PA | 2026-05-09 04:50 | ASOS | 46 | 43 | 87 | 29.90 | 0 | N | |||
| Mount Pocono | PA | 2026-05-09 04:53 | ASOS | 45 | 43 | 93 | 29.90 | 0 | N | |||
| Mount Pocono | PA | 2026-05-09 04:55 | ASOS | 45 | 43 | 93 | 29.90 | 0 | N | |||
| Mount Pocono | PA | 2026-05-09 05:00 | ASOS | 45 | 45 | 100 | 29.89 | 0 | N | |||
| Mount Pocono | PA | 2026-05-09 07:00 | ASOS | 46 | 43 | 87 | 29.88 | 0 | N | |||
| Mount Pocono | PA | 2026-05-09 07:10 | ASOS | 46 | 43 | 87 | 29.89 | 3 | E | |||
| Mount Pocono | PA | 2026-05-09 03:25 | ASOS | 46 | 43 | 87 | 29.91 | 5 | SSE | |||
| Mount Pocono | PA | 2026-05-09 11:15 | ASOS | 48 | 46 | 93 | 29.87 | 6 | SE | |||
| Mount Pocono | PA | 2026-05-09 10:15 | ASOS | 46 | 45 | 93 | 29.89 | 7 | ESE | |||
| Mount Pocono | PA | 2026-05-09 10:25 | ASOS | 48 | 46 | 93 | 29.89 | 6 | SE | |||
| Mount Pocono | PA | 2026-05-09 10:38 | ASOS | 48 | 46 | 93 | 29.89 | 6 | SSW | |||
| Mount Pocono | PA | 2026-05-09 10:40 | ASOS | 48 | 46 | 93 | 29.89 | 5 | SSW | |||
| Mount Pocono | PA | 2026-05-09 10:50 | ASOS | 48 | 46 | 93 | 29.89 | 7 | S | |||
| Mount Pocono | PA | 2026-05-09 10:53 | ASOS | 48 | 46 | 93 | 29.89 | 8 | SSW | |||
| Mount Pocono | PA | 2026-05-09 11:00 | ASOS | 48 | 46 | 93 | 29.88 | 5 | SSE | |||
| Mount Pocono | PA | 2026-05-09 11:05 | ASOS | 48 | 46 | 93 | 29.88 | 6 | S | |||
| Mount Pocono | PA | 2026-05-09 11:53 | ASOS | 49 | 46 | 90 | 29.88 | 9 | S | |||
| Mount Pocono | PA | 2026-05-09 09:53 | ASOS | 47 | 45 | 93 | 29.87 | 3 | E | |||
| Mount Pocono | PA | 2026-05-09 12:53 | ASOS | 50 | 47 | 89 | 29.86 | 9 | SSW | |||
| Mount Pocono | PA | 2026-05-09 13:18 | ASOS | 49 | 47 | 93 | 29.87 | 7 | SSW | |||
| Mount Pocono | PA | 2026-05-09 13:53 | ASOS | 49 | 47 | 93 | 29.87 | 13 | SW | |||
| Mount Pocono | PA | 2026-05-09 14:50 | ASOS | 48 | 46 | 93 | 29.86 | 10 | WSW | |||
| Mount Pocono | PA | 2026-05-09 14:53 | ASOS | 49 | 46 | 90 | 29.86 | 8 | WSW | |||
| Mount Pocono | PA | 2026-05-09 16:53 | ASOS | 51 | 48 | 89 | 29.82 | 12 | WSW | |||
| Mount Pocono | PA | 2026-05-09 17:16 | ASOS | 52 | 48 | 86 | 29.81 | 13 | WSW | |||
| Mount Pocono | PA | 2026-05-09 17:53 | ASOS | 53 | 48 | 83 | 29.80 | 10 | WSW | |||
| Mount Pocono | PA | 2026-05-09 10:05 | ASOS | 46 | 45 | 93 | 29.89 | 7 | ESE | |||
| Mount Pocono | PA | 2026-05-09 09:50 | ASOS | 46 | 45 | 93 | 29.88 | 6 | E | |||
| Mount Pocono | PA | 2026-05-09 07:15 | ASOS | 46 | 43 | 87 | 29.88 | 6 | ESE | |||
| Mount Pocono | PA | 2026-05-09 08:15 | ASOS | 48 | 41 | 76 | 29.89 | 8 | ESE | |||
| Mount Pocono | PA | 2026-05-09 07:20 | ASOS | 46 | 43 | 87 | 29.89 | 7 | SE | |||
| Mount Pocono | PA | 2026-05-09 07:25 | ASOS | 48 | 41 | 76 | 29.87 | 10 | E | |||
| Mount Pocono | PA | 2026-05-09 07:30 | ASOS | 46 | 41 | 81 | 29.88 | 7 | E | |||
| Mount Pocono | PA | 2026-05-09 07:35 | ASOS | 48 | 41 | 76 | 29.87 | 3 | ESE | |||
| Mount Pocono | PA | 2026-05-09 07:40 | ASOS | 48 | 41 | 76 | 29.88 | 8 | S | |||
| Mount Pocono | PA | 2026-05-09 07:50 | ASOS | 48 | 41 | 76 | 29.88 | 9 | ESE | |||
| Mount Pocono | PA | 2026-05-09 07:53 | ASOS | 48 | 41 | 77 | 29.88 | 8 | ESE | |||
| Mount Pocono | PA | 2026-05-09 08:05 | ASOS | 48 | 41 | 76 | 29.89 | 7 | ESE | |||
| Mount Pocono | PA | 2026-05-09 08:20 | ASOS | 48 | 41 | 76 | 29.88 | 5 | E | |||
| Mount Pocono | PA | 2026-05-09 09:40 | ASOS | 46 | 45 | 93 | 29.88 | 6 | ESE | |||
| Mount Pocono | PA | 2026-05-09 08:25 | ASOS | 48 | 41 | 76 | 29.89 | 7 | ESE | |||
| Mount Pocono | PA | 2026-05-09 08:40 | ASOS | 46 | 43 | 87 | 29.89 | 6 | ESE | |||
| Mount Pocono | PA | 2026-05-09 08:50 | ASOS | 46 | 43 | 87 | 29.90 | 6 | ESE | |||
| Mount Pocono | PA | 2026-05-09 08:55 | ASOS | 46 | 43 | 87 | 29.89 | 6 | E | |||
| Mount Pocono | PA | 2026-05-09 09:05 | ASOS | 46 | 43 | 87 | 29.89 | 8 | ESE | |||
| Mount Pocono | PA | 2026-05-09 09:10 | ASOS | 46 | 43 | 87 | 29.88 | 7 | ESE | |||
| Mount Pocono | PA | 2026-05-09 09:15 | ASOS | 46 | 43 | 87 | 29.88 | 6 | E | |||
| Mount Pocono | PA | 2026-05-09 09:25 | ASOS | 48 | 45 | 87 | 29.87 | 7 | E | |||
| Mount Pocono | PA | 2026-05-09 03:30 | ASOS | 46 | 43 | 87 | 29.91 | 0 | N | |||
| Mount Pocono | PA | 2026-05-09 03:20 | ASOS | 46 | 43 | 87 | 29.91 | 5 | SSE | |||
| Mount Pocono | PA | 2026-05-08 20:20 | ASOS | 46 | 43 | 87 | 29.90 | 6 | W | |||
| Mount Pocono | PA | 2026-05-08 22:53 | ASOS | 42 | 40 | 92 | 29.93 | 0 | N | |||
| Mount Pocono | PA | 2026-05-08 22:15 | ASOS | 46 | 39 | 76 | 29.93 | 3 | W | |||
| Mount Pocono | PA | 2026-05-08 22:20 | ASOS | 46 | 39 | 76 | 29.93 | 3 | W | |||
| Mount Pocono | PA | 2026-05-08 22:25 | ASOS | 46 | 39 | 76 | 29.93 | 3 | W | |||
| Mount Pocono | PA | 2026-05-08 22:30 | ASOS | 46 | 39 | 76 | 29.93 | 3 | W | |||
| Mount Pocono | PA | 2026-05-08 22:35 | ASOS | 46 | 39 | 76 | 29.93 | 3 | W | |||
| Mount Pocono | PA | 2026-05-08 22:40 | ASOS | 46 | 39 | 76 | 29.93 | 0 | N | |||
| Mount Pocono | PA | 2026-05-08 22:45 | ASOS | 45 | 39 | 81 | 29.92 | 0 | N | |||
| Mount Pocono | PA | 2026-05-08 22:50 | ASOS | 43 | 39 | 87 | 29.93 | 0 | N | |||
| Mount Pocono | PA | 2026-05-08 22:55 | ASOS | 43 | 39 | 87 | 29.93 | 0 | N | |||
| Mount Pocono | PA | 2026-05-08 22:05 | ASOS | 46 | 39 | 76 | 29.93 | 3 | W | |||
| Mount Pocono | PA | 2026-05-08 23:00 | ASOS | 43 | 39 | 87 | 29.94 | 0 | N | |||
| Mount Pocono | PA | 2026-05-08 23:05 | ASOS | 43 | 39 | 87 | 29.94 | 0 | N | |||
| Mount Pocono | PA | 2026-05-08 23:10 | ASOS | 45 | 39 | 81 | 29.93 | 0 | N | |||
| Mount Pocono | PA | 2026-05-08 23:15 | ASOS | 45 | 39 | 81 | 29.93 | 0 | N | |||
| Mount Pocono | PA | 2026-05-08 23:20 | ASOS | 43 | 39 | 87 | 29.94 | 0 | N | |||
| Mount Pocono | PA | 2026-05-08 23:25 | ASOS | 45 | 39 | 81 | 29.93 | 0 | N | |||
| Mount Pocono | PA | 2026-05-08 23:30 | ASOS | 43 | 39 | 87 | 29.94 | 0 | N | |||
| Mount Pocono | PA | 2026-05-08 23:35 | ASOS | 45 | 39 | 81 | 29.93 | 0 | N | |||
| Mount Pocono | PA | 2026-05-08 22:10 | ASOS | 46 | 39 | 76 | 29.93 | 3 | W | |||
| Mount Pocono | PA | 2026-05-08 22:00 | ASOS | 46 | 39 | 76 | 29.93 | 3 | WSW | |||
| Mount Pocono | PA | 2026-05-08 23:45 | ASOS | 45 | 41 | 87 | 29.93 | 0 | N | |||
| Mount Pocono | PA | 2026-05-08 21:00 | ASOS | 46 | 41 | 81 | 29.91 | 3 | W | |||
| Mount Pocono | PA | 2026-05-08 20:25 | ASOS | 46 | 43 | 87 | 29.90 | 5 | WSW | |||
| Mount Pocono | PA | 2026-05-08 20:30 | ASOS | 46 | 41 | 81 | 29.90 | 5 | WSW | |||
| Mount Pocono | PA | 2026-05-08 20:35 | ASOS | 46 | 41 | 81 | 29.90 | 5 | W | |||
| Mount Pocono | PA | 2026-05-08 20:40 | ASOS | 46 | 43 | 87 | 29.90 | 5 | W | |||
| Mount Pocono | PA | 2026-05-08 20:45 | ASOS | 46 | 43 | 87 | 29.90 | 5 | W | |||
| Mount Pocono | PA | 2026-05-08 20:50 | ASOS | 46 | 43 | 87 | 29.91 | 6 | W | |||
| Mount Pocono | PA | 2026-05-08 20:53 | ASOS | 47 | 42 | 83 | 29.90 | 6 | W | |||
| Mount Pocono | PA | 2026-05-08 20:55 | ASOS | 46 | 41 | 81 | 29.91 | 5 | W | |||
| Mount Pocono | PA | 2026-05-08 21:05 | ASOS | 46 | 41 | 81 | 29.91 | 3 | WSW | |||
| Mount Pocono | PA | 2026-05-08 21:53 | ASOS | 47 | 41 | 80 | 29.92 | 3 | W | |||
| Mount Pocono | PA | 2026-05-08 21:10 | ASOS | 48 | 41 | 76 | 29.90 | 3 | SW | |||
| Mount Pocono | PA | 2026-05-08 21:15 | ASOS | 48 | 41 | 76 | 29.90 | 3 | SW | |||
| Mount Pocono | PA | 2026-05-08 21:20 | ASOS | 48 | 41 | 76 | 29.91 | 3 | WSW | |||
| Mount Pocono | PA | 2026-05-08 21:25 | ASOS | 48 | 41 | 76 | 29.91 | 3 | SW | |||
| Mount Pocono | PA | 2026-05-08 21:35 | ASOS | 46 | 41 | 81 | 29.92 | 3 | SW | |||
| Mount Pocono | PA | 2026-05-08 21:40 | ASOS | 46 | 41 | 81 | 29.92 | 3 | SW | |||
| Mount Pocono | PA | 2026-05-08 21:45 | ASOS | 46 | 41 | 81 | 29.92 | 3 | W | |||
| Mount Pocono | PA | 2026-05-08 21:50 | ASOS | 46 | 41 | 81 | 29.92 | 3 | W | |||
| Mount Pocono | PA | 2026-05-08 23:40 | ASOS | 45 | 41 | 87 | 29.93 | 0 | N | |||
| Mount Pocono | PA | 2026-05-08 23:53 | ASOS | 44 | 41 | 89 | 29.93 | 0 | N | |||
| Mount Pocono | PA | 2026-05-09 03:15 | ASOS | 45 | 43 | 93 | 29.91 | 5 | SSE | |||
| Mount Pocono | PA | 2026-05-09 02:30 | ASOS | 46 | 43 | 87 | 29.90 | 5 | NW | |||
| Mount Pocono | PA | 2026-05-09 01:53 | ASOS | 48 | 41 | 77 | 29.91 | 5 | S | |||
| Mount Pocono | PA | 2026-05-09 01:55 | ASOS | 48 | 41 | 76 | 29.90 | 3 | S | |||
| Mount Pocono | PA | 2026-05-09 02:00 | ASOS | 48 | 41 | 76 | 29.91 | 6 | SSW | |||
| Mount Pocono | PA | 2026-05-09 02:05 | ASOS | 48 | 41 | 76 | 29.90 | 5 | WNW | |||
| Mount Pocono | PA | 2026-05-09 02:10 | ASOS | 46 | 43 | 87 | 29.91 | 6 | NW | |||
| Mount Pocono | PA | 2026-05-09 02:15 | ASOS | 46 | 43 | 87 | 29.91 | 6 | NW | |||
| Mount Pocono | PA | 2026-05-09 02:20 | ASOS | 46 | 43 | 87 | 29.91 | 7 | NW | |||
| Mount Pocono | PA | 2026-05-09 02:25 | ASOS | 46 | 43 | 87 | 29.90 | 6 | NW | |||
| Mount Pocono | PA | 2026-05-09 02:35 | ASOS | 46 | 43 | 87 | 29.90 | 3 | WNW | |||
| Mount Pocono | PA | 2026-05-09 01:45 | ASOS | 48 | 41 | 76 | 29.92 | 7 | S | |||
| Mount Pocono | PA | 2026-05-09 02:40 | ASOS | 46 | 43 | 87 | 29.90 | 0 | N | |||
| Mount Pocono | PA | 2026-05-09 02:45 | ASOS | 46 | 43 | 87 | 29.90 | 0 | N | |||
| Mount Pocono | PA | 2026-05-09 02:50 | ASOS | 46 | 43 | 87 | 29.90 | 0 | N | |||
| Mount Pocono | PA | 2026-05-09 02:53 | ASOS | 45 | 42 | 90 | 29.90 | 0 | N | |||
| Mount Pocono | PA | 2026-05-09 02:55 | ASOS | 45 | 43 | 93 | 29.90 | 0 | N | |||
| Mount Pocono | PA | 2026-05-09 03:00 | ASOS | 45 | 43 | 93 | 29.90 | 3 | SSW | |||
| Mount Pocono | PA | 2026-05-09 03:05 | ASOS | 45 | 43 | 93 | 29.90 | 3 | S | |||
| Mount Pocono | PA | 2026-05-09 03:10 | ASOS | 46 | 43 | 87 | 29.90 | 3 | SSE | |||
| Mount Pocono | PA | 2026-05-09 01:50 | ASOS | 48 | 41 | 76 | 29.91 | 6 | S | |||
| Mount Pocono | PA | 2026-05-09 01:40 | ASOS | 48 | 41 | 76 | 29.92 | 6 | S | |||
| Mount Pocono | PA | 2026-05-09 00:00 | ASOS | 43 | 41 | 93 | 29.93 | 5 | N | |||
| Mount Pocono | PA | 2026-05-09 00:45 | ASOS | 43 | 43 | 100 | 29.92 | 0 | N | |||
| Mount Pocono | PA | 2026-05-09 00:05 | ASOS | 45 | 43 | 93 | 29.92 | 5 | N | |||
| Mount Pocono | PA | 2026-05-09 00:10 | ASOS | 45 | 43 | 93 | 29.92 | 3 | N | |||
| Mount Pocono | PA | 2026-05-09 00:15 | ASOS | 45 | 43 | 93 | 29.92 | 0 | N | |||
| Mount Pocono | PA | 2026-05-09 00:20 | ASOS | 43 | 43 | 100 | 29.92 | 0 | N | |||
| Mount Pocono | PA | 2026-05-09 00:25 | ASOS | 43 | 43 | 100 | 29.93 | 0 | N | |||
| Mount Pocono | PA | 2026-05-09 00:30 | ASOS | 43 | 43 | 100 | 29.93 | 0 | N | |||
| Mount Pocono | PA | 2026-05-09 00:35 | ASOS | 43 | 43 | 100 | 29.93 | 0 | N | |||
| Mount Pocono | PA | 2026-05-09 00:40 | ASOS | 43 | 43 | 100 | 29.92 | 0 | N | |||
| Mount Pocono | PA | 2026-05-09 00:50 | ASOS | 43 | 43 | 100 | 29.92 | 0 | N | |||
| Mount Pocono | PA | 2026-05-09 01:35 | ASOS | 48 | 41 | 76 | 29.92 | 6 | S | |||
| Mount Pocono | PA | 2026-05-09 00:53 | ASOS | 43 | 42 | 97 | 29.92 | 3 | E | |||
| Mount Pocono | PA | 2026-05-09 00:55 | ASOS | 43 | 43 | 100 | 29.92 | 3 | ESE | |||
| Mount Pocono | PA | 2026-05-09 01:05 | ASOS | 45 | 43 | 93 | 29.93 | 9 | SE | |||
| Mount Pocono | PA | 2026-05-09 01:10 | ASOS | 46 | 41 | 81 | 29.93 | 7 | SSE | |||
| Mount Pocono | PA | 2026-05-09 01:15 | ASOS | 46 | 41 | 81 | 29.94 | 5 | S | |||
| Mount Pocono | PA | 2026-05-09 01:20 | ASOS | 46 | 41 | 81 | 29.93 | 6 | SSE | |||
| Mount Pocono | PA | 2026-05-09 01:25 | ASOS | 46 | 41 | 81 | 29.93 | 6 | S | |||
| Mount Pocono | PA | 2026-05-09 01:30 | ASOS | 48 | 41 | 76 | 29.92 | 8 | S | |||
| Mount Pocono | PA | 2026-05-09 18:53 | ASOS | 53 | 47 | 80 | 29.80 | 10 | WSW |
data collection created in 0.025411128997803 (queried in 0.005038) rendered in: 0.00034618377685547

